Time;durP1;ratioP1;P1;durP2;ratioP2;P2;SDS_P1;SDS_P2;PMS_P1;PMS_P2;Temp;Humidity;BMP_temperature;BMP_pressure;BME280_temperature;BME280_humidity;BME280_pressure;Samples;Min_cycle;Max_cycle;Signal;HPM_P1;HPM_P2
2022/01/14 00:01:41;;;;;;;25.77;14.97;;;;;;;;;;5028647;28;20516;-83
2022/01/14 00:04:07;;;;;;;40.93;16.20;;;;;;;;;;5030743;28;20489;-83
2022/01/14 00:06:34;;;;;;;30.73;14.73;;;;;;;;;;5030831;28;20503;-82
2022/01/14 00:09:06;;;;;;;24.90;14.50;;;;;;;;;;5030205;28;20453;-83
2022/01/14 00:11:32;;;;;;;28.93;15.30;;;;;;;;;;5029669;28;20483;-83
2022/01/14 00:14:09;;;;;;;24.63;14.00;;;;;;;;;;5031861;28;20453;-84
2022/01/14 00:16:35;;;;;;;21.77;13.27;;;;;;;;;;5030038;28;20560;-84
2022/01/14 00:19:02;;;;;;;27.10;13.70;;;;;;;;;;5029112;28;20550;-83
2022/01/14 00:21:29;;;;;;;22.83;14.43;;;;;;;;;;5029524;28;20480;-82
2022/01/14 00:24:07;;;;;;;23.60;13.93;;;;;;;;;;5030517;28;20465;-83
2022/01/14 00:32:07;;;;;;;24.73;14.63;;;;;;;;;;5030912;28;20480;-83
2022/01/14 00:34:33;;;;;;;23.77;14.20;;;;;;;;;;5032361;28;20452;-83
2022/01/14 00:37:00;;;;;;;22.57;13.53;;;;;;;;;;5030627;28;20488;-83
2022/01/14 00:39:27;;;;;;;30.43;15.30;;;;;;;;;;5028958;28;20966;-84
2022/01/14 00:41:54;;;;;;;27.17;14.40;;;;;;;;;;5029309;28;20839;-84
2022/01/14 00:44:20;;;;;;;17.77;13.73;;;;;;;;;;5031209;28;20512;-83
2022/01/14 00:46:48;;;;;;;21.03;13.43;;;;;;;;;;5030277;28;20526;-83
2022/01/14 00:49:15;;;;;;;25.53;14.70;;;;;;;;;;5028275;28;20540;-83
2022/01/14 00:51:42;;;;;;;33.83;14.70;;;;;;;;;;5028504;28;20470;-84
2022/01/14 00:54:09;;;;;;;23.90;14.30;;;;;;;;;;5028021;28;20870;-84
2022/01/14 00:56:48;;;;;;;27.00;13.10;;;;;;;;;;5031191;28;20477;-83
2022/01/14 00:59:14;;;;;;;24.70;13.47;;;;;;;;;;5030513;28;20531;-84
2022/01/14 01:01:42;;;;;;;24.60;15.07;;;;;;;;;;5027106;28;20506;-83
2022/01/14 01:04:08;;;;;;;29.87;14.87;;;;;;;;;;5032609;28;20475;-83
2022/01/14 01:06:35;;;;;;;26.73;13.83;;;;;;;;;;5032380;28;20496;-84
2022/01/14 01:09:01;;;;;;;31.27;15.00;;;;;;;;;;5035081;28;20445;-83
2022/01/14 01:11:33;;;;;;;22.13;15.10;;;;;;;;;;5036118;28;20462;-83
2022/01/14 01:14:06;;;;;;;22.43;14.40;;;;;;;;;;5033216;28;20445;-85
2022/01/14 01:16:32;;;;;;;19.00;13.67;;;;;;;;;;5030996;28;21017;-84
2022/01/14 01:18:59;;;;;;;27.43;16.20;;;;;;;;;;5033493;28;20853;-83
2022/01/14 01:21:25;;;;;;;23.63;13.77;;;;;;;;;;5033165;28;20476;-83
2022/01/14 01:23:51;;;;;;;20.50;13.87;;;;;;;;;;5034987;28;20909;-84
2022/01/14 01:26:24;;;;;;;37.83;15.50;;;;;;;;;;5031515;28;20480;-83
2022/01/14 01:29:01;;;;;;;31.90;15.10;;;;;;;;;;5033052;28;20479;-84
2022/01/14 01:31:39;;;;;;;25.60;13.70;;;;;;;;;;5031022;28;20505;-83
2022/01/14 01:34:06;;;;;;;26.90;14.57;;;;;;;;;;5032776;28;20460;-84
2022/01/14 01:36:32;;;;;;;26.00;13.93;;;;;;;;;;5032408;28;20560;-84
2022/01/14 01:38:58;;;;;;;29.27;14.80;;;;;;;;;;5035569;28;20472;-83
2022/01/14 01:41:25;;;;;;;22.73;13.03;;;;;;;;;;5030340;28;20474;-84
2022/01/14 01:43:53;;;;;;;26.57;14.00;;;;;;;;;;5032072;28;20484;-83
2022/01/14 01:46:20;;;;;;;31.67;12.67;;;;;;;;;;5031512;28;20515;-83
2022/01/14 01:48:48;;;;;;;22.60;13.43;;;;;;;;;;5032065;28;20475;-83
2022/01/14 01:51:15;;;;;;;21.33;14.60;;;;;;;;;;5031602;28;20819;-83
2022/01/14 01:53:41;;;;;;;20.33;13.27;;;;;;;;;;5032748;28;20469;-83
2022/01/14 01:56:08;;;;;;;37.73;15.10;;;;;;;;;;5032773;28;20477;-84
2022/01/14 01:58:34;;;;;;;29.57;13.57;;;;;;;;;;5030802;28;20471;-83
2022/01/14 02:01:03;;;;;;;32.90;14.20;;;;;;;;;;5034665;28;20488;-84
2022/01/14 02:03:29;;;;;;;31.87;16.00;;;;;;;;;;5032690;28;20477;-83
2022/01/14 02:05:57;;;;;;;22.60;13.50;;;;;;;;;;5032576;28;20460;-83
2022/01/14 02:08:23;;;;;;;28.27;13.80;;;;;;;;;;5029336;28;21041;-84
2022/01/14 02:10:49;;;;;;;19.83;12.90;;;;;;;;;;5030714;28;20961;-83
2022/01/14 02:13:16;;;;;;;30.43;15.07;;;;;;;;;;5031128;28;20461;-83
2022/01/14 02:15:46;;;;;;;26.93;15.63;;;;;;;;;;5030345;28;20473;-83
2022/01/14 02:18:28;;;;;;;23.40;13.17;;;;;;;;;;5031304;28;20450;-83
2022/01/14 02:23:44;;;;;;;26.33;15.23;;;;;;;;;;5032775;28;20557;-83
2022/01/14 02:26:10;;;;;;;25.77;14.67;;;;;;;;;;5033695;28;21068;-83
2022/01/14 02:28:36;;;;;;;28.10;15.83;;;;;;;;;;5033021;28;20512;-83
2022/01/14 02:31:04;;;;;;;24.97;13.60;;;;;;;;;;5030935;28;21177;-83
2022/01/14 02:33:30;;;;;;;28.57;15.10;;;;;;;;;;5032334;28;20485;-83
2022/01/14 02:35:59;;;;;;;23.53;14.30;;;;;;;;;;5031419;28;20462;-85
2022/01/14 02:38:26;;;;;;;30.33;16.20;;;;;;;;;;5032880;28;20446;-83
2022/01/14 02:40:52;;;;;;;19.70;13.07;;;;;;;;;;5030846;28;20515;-84
2022/01/14 02:43:18;;;;;;;29.07;15.90;;;;;;;;;;5030831;28;21004;-84
2022/01/14 02:45:49;;;;;;;22.30;14.10;;;;;;;;;;5029990;28;20449;-83
2022/01/14 02:48:15;;;;;;;25.27;13.97;;;;;;;;;;5029709;28;20855;-83
2022/01/14 02:50:52;;;;;;;19.53;12.40;;;;;;;;;;5031555;28;20515;-83
2022/01/14 02:53:27;;;;;;;23.23;13.53;;;;;;;;;;5031269;28;20496;-83
2022/01/14 02:55:54;;;;;;;25.53;15.27;;;;;;;;;;5032403;28;20469;-83
2022/01/14 02:58:21;;;;;;;23.87;14.53;;;;;;;;;;5028103;28;20464;-83
2022/01/14 03:00:48;;;;;;;29.00;15.03;;;;;;;;;;5029389;28;20465;-83
2022/01/14 03:03:17;;;;;;;21.70;12.80;;;;;;;;;;5030741;28;20481;-83
2022/01/14 03:05:43;;;;;;;23.50;14.23;;;;;;;;;;5029218;28;20853;-81
2022/01/14 03:08:09;;;;;;;28.07;15.47;;;;;;;;;;5030738;28;20971;-83
2022/01/14 03:10:37;;;;;;;25.60;13.90;;;;;;;;;;5031665;28;20476;-83
2022/01/14 03:13:03;;;;;;;25.77;13.67;;;;;;;;;;5032226;28;20457;-83
2022/01/14 03:15:30;;;;;;;23.93;14.50;;;;;;;;;;5028726;28;20465;-83
2022/01/14 03:17:57;;;;;;;28.23;13.97;;;;;;;;;;5027918;28;20470;-83
2022/01/14 03:20:43;;;;;;;25.47;13.03;;;;;;;;;;5030439;28;20454;-84
2022/01/14 03:23:11;;;;;;;22.43;14.07;;;;;;;;;;5029895;28;20484;-84
2022/01/14 03:25:48;;;;;;;19.93;13.27;;;;;;;;;;5030523;28;20490;-84
2022/01/14 03:28:16;;;;;;;40.23;15.90;;;;;;;;;;5031560;28;20480;-84
2022/01/14 03:30:42;;;;;;;26.83;15.40;;;;;;;;;;5027054;28;20483;-81
2022/01/14 03:33:08;;;;;;;23.00;15.37;;;;;;;;;;5030972;28;20540;-83
2022/01/14 03:35:35;;;;;;;30.27;16.00;;;;;;;;;;5029738;28;20476;-83
2022/01/14 03:38:01;;;;;;;33.10;15.27;;;;;;;;;;5029587;28;20519;-84
2022/01/14 03:40:27;;;;;;;30.20;15.00;;;;;;;;;;5032687;28;20872;-83
2022/01/14 03:42:55;;;;;;;31.30;14.87;;;;;;;;;;5030875;28;20472;-83
2022/01/14 03:45:21;;;;;;;36.13;15.80;;;;;;;;;;5032136;28;20463;-83
2022/01/14 03:47:47;;;;;;;27.33;15.50;;;;;;;;;;5029984;28;20477;-83
2022/01/14 03:50:13;;;;;;;24.23;14.80;;;;;;;;;;5029352;28;20450;-84
2022/01/14 03:52:40;;;;;;;24.77;14.23;;;;;;;;;;5028357;28;20492;-83
2022/01/14 03:55:06;;;;;;;26.97;15.60;;;;;;;;;;5030127;28;20549;-83
2022/01/14 03:57:33;;;;;;;28.93;15.30;;;;;;;;;;5028800;28;20484;-83
2022/01/14 04:00:00;;;;;;;23.60;14.80;;;;;;;;;;5030661;28;20508;-83
2022/01/14 04:02:26;;;;;;;26.60;13.67;;;;;;;;;;5029062;28;20468;-83
2022/01/14 04:04:53;;;;;;;26.10;14.23;;;;;;;;;;5031073;28;20456;-83
2022/01/14 04:07:19;;;;;;;29.77;15.30;;;;;;;;;;5028585;28;20544;-83
2022/01/14 04:09:45;;;;;;;33.70;14.80;;;;;;;;;;5028727;28;20473;-83
2022/01/14 04:12:17;;;;;;;28.43;14.30;;;;;;;;;;5030658;28;20477;-83
2022/01/14 04:17:29;;;;;;;31.97;14.47;;;;;;;;;;5028627;28;20499;-83
2022/01/14 04:19:55;;;;;;;29.53;13.67;;;;;;;;;;5030406;28;20491;-83
2022/01/14 04:22:21;;;;;;;27.93;16.30;;;;;;;;;;5028430;28;20507;-83
2022/01/14 04:24:48;;;;;;;24.23;15.30;;;;;;;;;;5029956;28;20481;-83
2022/01/14 04:27:14;;;;;;;28.10;14.53;;;;;;;;;;5026472;28;20476;-83
2022/01/14 04:29:40;;;;;;;33.00;15.90;;;;;;;;;;5030054;28;20445;-83
2022/01/14 04:32:07;;;;;;;30.43;14.70;;;;;;;;;;5027957;28;20503;-83
2022/01/14 04:34:34;;;;;;;23.80;15.17;;;;;;;;;;5029127;28;20511;-83
2022/01/14 04:37:00;;;;;;;25.17;16.07;;;;;;;;;;5028773;28;20499;-83
2022/01/14 04:39:27;;;;;;;25.50;15.23;;;;;;;;;;5034448;28;20487;-83
2022/01/14 04:41:53;;;;;;;33.63;15.20;;;;;;;;;;5030719;28;20994;-83
2022/01/14 04:44:19;;;;;;;24.80;15.43;;;;;;;;;;5034140;28;20843;-83
2022/01/14 04:47:02;;;;;;;23.80;14.77;;;;;;;;;;5033506;28;20493;-83
2022/01/14 04:49:28;;;;;;;29.87;15.50;;;;;;;;;;5031922;28;20464;-84
2022/01/14 04:51:56;;;;;;;24.17;13.83;;;;;;;;;;5031042;28;20481;-81
2022/01/14 04:54:23;;;;;;;28.63;14.80;;;;;;;;;;5034447;28;20479;-83
2022/01/14 04:56:49;;;;;;;25.30;15.00;;;;;;;;;;5034095;28;20481;-83
2022/01/14 04:59:15;;;;;;;29.03;16.37;;;;;;;;;;5033913;28;20473;-83
2022/01/14 05:01:42;;;;;;;27.67;15.33;;;;;;;;;;5032127;28;20476;-83
2022/01/14 05:04:08;;;;;;;23.73;15.73;;;;;;;;;;5034112;28;20482;-83
2022/01/14 05:06:34;;;;;;;28.13;15.60;;;;;;;;;;5033366;28;20878;-84
2022/01/14 05:09:06;;;;;;;31.83;17.83;;;;;;;;;;5033009;28;20505;-84
2022/01/14 05:11:39;;;;;;;32.33;17.53;;;;;;;;;;5033631;28;20481;-84
2022/01/14 05:14:05;;;;;;;34.87;17.97;;;;;;;;;;5030822;28;20453;-83
2022/01/14 05:16:31;;;;;;;34.27;17.43;;;;;;;;;;5032660;28;20481;-83
2022/01/14 05:18:58;;;;;;;26.70;16.70;;;;;;;;;;5031169;28;20461;-83
2022/01/14 05:21:24;;;;;;;26.27;15.57;;;;;;;;;;5028462;28;20477;-84
2022/01/14 05:23:50;;;;;;;27.43;17.13;;;;;;;;;;5034861;28;20488;-83
2022/01/14 05:26:18;;;;;;;32.80;18.23;;;;;;;;;;5029201;28;20477;-83
2022/01/14 05:28:44;;;;;;;29.77;17.33;;;;;;;;;;5030421;28;20466;-82
2022/01/14 05:31:10;;;;;;;38.43;18.63;;;;;;;;;;5031713;28;20520;-83
2022/01/14 05:33:39;;;;;;;32.43;18.00;;;;;;;;;;5031491;28;20530;-82
2022/01/14 05:36:05;;;;;;;29.50;18.07;;;;;;;;;;5034167;28;20468;-83
2022/01/14 05:38:32;;;;;;;26.40;16.00;;;;;;;;;;5032639;28;20535;-83
2022/01/14 05:40:58;;;;;;;33.30;16.37;;;;;;;;;;5030461;28;20461;-83
2022/01/14 05:43:25;;;;;;;36.80;19.03;;;;;;;;;;5030830;28;20488;-84
2022/01/14 05:45:52;;;;;;;32.80;18.03;;;;;;;;;;5031119;28;20483;-83
2022/01/14 05:48:18;;;;;;;39.10;16.67;;;;;;;;;;5032842;28;20883;-83
2022/01/14 05:50:44;;;;;;;28.17;16.83;;;;;;;;;;5030403;28;20468;-84
2022/01/14 05:53:10;;;;;;;39.43;18.53;;;;;;;;;;5032288;28;20873;-83
2022/01/14 05:55:37;;;;;;;38.63;19.33;;;;;;;;;;5033728;28;20465;-83
2022/01/14 05:58:03;;;;;;;34.53;18.80;;;;;;;;;;5031121;28;20879;-81
2022/01/14 06:00:31;;;;;;;32.83;17.40;;;;;;;;;;5032137;28;20461;-83
2022/01/14 06:02:57;;;;;;;33.30;18.03;;;;;;;;;;5033109;28;21394;-83
2022/01/14 06:05:23;;;;;;;33.93;16.50;;;;;;;;;;5032701;28;20589;-84
2022/01/14 06:07:49;;;;;;;33.23;18.73;;;;;;;;;;5030385;28;20606;-84
2022/01/14 06:10:16;;;;;;;44.47;20.10;;;;;;;;;;5031064;28;20520;-84
2022/01/14 06:12:42;;;;;;;39.20;18.53;;;;;;;;;;5029341;28;20910;-84
2022/01/14 06:15:09;;;;;;;32.70;17.30;;;;;;;;;;5030978;28;20450;-83
2022/01/14 06:17:36;;;;;;;32.37;17.70;;;;;;;;;;5030024;28;20477;-83
2022/01/14 06:20:03;;;;;;;42.63;19.80;;;;;;;;;;5032565;28;20448;-84
2022/01/14 06:22:30;;;;;;;37.37;17.80;;;;;;;;;;5030896;28;20478;-83
2022/01/14 06:24:57;;;;;;;27.40;17.47;;;;;;;;;;5030142;28;20469;-83
2022/01/14 06:27:23;;;;;;;39.83;18.93;;;;;;;;;;5029366;28;20474;-83
2022/01/14 06:29:49;;;;;;;35.13;16.73;;;;;;;;;;5029450;28;20507;-83
2022/01/14 06:32:16;;;;;;;43.13;20.27;;;;;;;;;;5030910;28;20472;-83
2022/01/14 06:34:43;;;;;;;33.03;19.50;;;;;;;;;;5029066;28;20452;-83
2022/01/14 06:37:09;;;;;;;31.87;18.27;;;;;;;;;;5027271;28;20485;-84
2022/01/14 06:39:36;;;;;;;32.60;18.47;;;;;;;;;;5029387;28;20514;-85
2022/01/14 06:42:02;;;;;;;31.40;17.30;;;;;;;;;;5023545;28;20484;-84
2022/01/14 06:44:28;;;;;;;27.33;18.20;;;;;;;;;;5028269;28;20560;-84
2022/01/14 06:46:54;;;;;;;37.87;18.37;;;;;;;;;;5030226;28;20526;-83
2022/01/14 06:49:21;;;;;;;32.20;18.70;;;;;;;;;;5029808;28;20512;-84
2022/01/14 06:51:48;;;;;;;34.03;18.23;;;;;;;;;;5025635;28;20480;-83
2022/01/14 06:54:14;;;;;;;33.43;16.60;;;;;;;;;;5027593;28;20457;-84
2022/01/14 06:56:41;;;;;;;30.97;17.37;;;;;;;;;;5029326;28;20476;-84
2022/01/14 06:59:09;;;;;;;32.40;18.80;;;;;;;;;;5030511;28;20873;-84
2022/01/14 07:01:35;;;;;;;40.60;18.17;;;;;;;;;;5027995;28;20472;-84
2022/01/14 07:04:01;;;;;;;46.30;18.73;;;;;;;;;;5031304;28;20501;-83
2022/01/14 07:06:27;;;;;;;30.87;17.40;;;;;;;;;;5030006;28;20481;-83
2022/01/14 07:08:55;;;;;;;29.73;17.37;;;;;;;;;;5030415;28;20446;-84
2022/01/14 07:11:25;;;;;;;30.20;17.27;;;;;;;;;;5029809;28;20485;-83
2022/01/14 07:13:51;;;;;;;35.80;16.60;;;;;;;;;;5029906;28;20557;-84
2022/01/14 07:16:17;;;;;;;27.00;18.17;;;;;;;;;;5029432;28;20534;-84
2022/01/14 07:18:46;;;;;;;30.67;15.63;;;;;;;;;;5031486;28;20480;-85
2022/01/14 07:21:12;;;;;;;28.83;16.40;;;;;;;;;;5029502;28;20461;-84
2022/01/14 07:23:38;;;;;;;27.73;16.77;;;;;;;;;;5030682;28;20489;-84
2022/01/14 07:26:06;;;;;;;31.20;16.73;;;;;;;;;;5027173;28;20496;-84
2022/01/14 07:28:32;;;;;;;24.40;16.20;;;;;;;;;;5029242;28;20468;-84
2022/01/14 07:30:58;;;;;;;25.03;16.27;;;;;;;;;;5030029;28;20535;-82
2022/01/14 07:33:24;;;;;;;29.97;17.37;;;;;;;;;;5030619;28;20490;-84
2022/01/14 07:35:51;;;;;;;43.60;19.30;;;;;;;;;;5031246;28;20473;-84
2022/01/14 07:38:17;;;;;;;26.13;15.20;;;;;;;;;;5031162;28;20449;-84
2022/01/14 07:40:43;;;;;;;27.90;16.20;;;;;;;;;;5030520;28;20465;-84
2022/01/14 07:43:11;;;;;;;31.70;17.00;;;;;;;;;;5029946;28;20492;-84
2022/01/14 07:45:37;;;;;;;30.57;16.00;;;;;;;;;;5029621;28;20444;-84
2022/01/14 07:48:03;;;;;;;30.10;16.70;;;;;;;;;;5030435;28;20480;-83
2022/01/14 07:50:30;;;;;;;30.30;17.30;;;;;;;;;;5032513;28;20506;-84
2022/01/14 07:52:56;;;;;;;25.10;15.93;;;;;;;;;;5030402;28;20473;-83
2022/01/14 07:55:22;;;;;;;25.20;15.33;;;;;;;;;;5030799;28;20445;-84
2022/01/14 07:57:48;;;;;;;30.70;16.73;;;;;;;;;;5029973;28;20468;-84
2022/01/14 08:00:17;;;;;;;29.70;15.00;;;;;;;;;;5031733;28;20444;-84
2022/01/14 08:02:43;;;;;;;34.93;15.97;;;;;;;;;;5027588;28;20695;-83
2022/01/14 08:05:10;;;;;;;31.03;15.70;;;;;;;;;;5028808;28;20465;-83
2022/01/14 08:07:44;;;;;;;35.03;16.37;;;;;;;;;;5031475;28;20474;-83
2022/01/14 08:10:11;;;;;;;26.93;14.93;;;;;;;;;;5031274;28;20440;-83
2022/01/14 08:12:37;;;;;;;36.27;17.30;;;;;;;;;;5028204;28;20556;-84
2022/01/14 08:15:05;;;;;;;27.00;15.33;;;;;;;;;;5030468;28;20814;-84
2022/01/14 08:17:32;;;;;;;28.43;15.80;;;;;;;;;;5029841;28;20555;-84
2022/01/14 08:19:58;;;;;;;28.87;16.80;;;;;;;;;;5030093;28;20442;-83
2022/01/14 08:22:25;;;;;;;21.97;14.47;;;;;;;;;;5027813;28;20489;-83
2022/01/14 08:24:51;;;;;;;24.03;14.67;;;;;;;;;;5028154;28;20482;-83
2022/01/14 08:27:17;;;;;;;22.63;14.33;;;;;;;;;;5029571;28;20470;-84
2022/01/14 08:29:44;;;;;;;38.40;16.53;;;;;;;;;;5029342;28;20461;-84
2022/01/14 08:32:11;;;;;;;21.70;14.00;;;;;;;;;;5029060;28;20472;-85
2022/01/14 08:34:38;;;;;;;37.97;15.37;;;;;;;;;;5027338;28;20470;-84
2022/01/14 08:37:04;;;;;;;32.60;15.77;;;;;;;;;;5027826;28;20477;-84
2022/01/14 08:39:31;;;;;;;33.33;17.50;;;;;;;;;;5030729;28;20503;-83
2022/01/14 08:41:58;;;;;;;35.10;15.77;;;;;;;;;;5028657;28;20477;-83
2022/01/14 08:44:24;;;;;;;31.37;16.30;;;;;;;;;;5031329;28;20478;-83
2022/01/14 08:46:51;;;;;;;25.40;14.63;;;;;;;;;;5029499;28;20466;-84
2022/01/14 08:49:17;;;;;;;27.77;15.50;;;;;;;;;;5031122;28;20508;-83
2022/01/14 08:51:47;;;;;;;33.37;16.10;;;;;;;;;;5029518;28;20474;-84
2022/01/14 08:54:13;;;;;;;30.40;14.93;;;;;;;;;;5029560;28;20448;-84
2022/01/14 08:56:40;;;;;;;30.23;14.50;;;;;;;;;;5031088;28;20580;-83
2022/01/14 08:59:06;;;;;;;27.13;13.03;;;;;;;;;;5030018;28;20498;-84
2022/01/14 09:01:32;;;;;;;29.10;15.23;;;;;;;;;;5031889;28;20495;-82
2022/01/14 09:04:00;;;;;;;38.50;17.07;;;;;;;;;;5029587;28;20492;-83
2022/01/14 09:06:26;;;;;;;33.10;14.70;;;;;;;;;;5030213;28;20468;-83
2022/01/14 09:08:54;;;;;;;25.00;14.77;;;;;;;;;;5029726;28;20467;-83
2022/01/14 09:11:20;;;;;;;31.33;15.50;;;;;;;;;;5030975;28;20482;-83
2022/01/14 09:13:46;;;;;;;32.23;15.63;;;;;;;;;;5030610;28;20473;-84
2022/01/14 09:16:12;;;;;;;34.33;14.20;;;;;;;;;;5034529;28;20476;-84
2022/01/14 09:18:39;;;;;;;23.77;12.20;;;;;;;;;;5029296;28;20489;-84
2022/01/14 09:21:05;;;;;;;26.17;13.30;;;;;;;;;;5033415;28;20464;-84
2022/01/14 09:23:33;;;;;;;29.03;14.00;;;;;;;;;;5032122;28;20491;-84
2022/01/14 09:26:01;;;;;;;27.33;14.00;;;;;;;;;;5036791;28;20483;-83
2022/01/14 09:28:28;;;;;;;27.07;12.80;;;;;;;;;;5036263;28;20503;-84
2022/01/14 09:30:54;;;;;;;19.17;12.40;;;;;;;;;;5034807;28;20517;-83
2022/01/14 09:33:21;;;;;;;26.53;11.20;;;;;;;;;;5034942;28;20484;-83
2022/01/14 09:35:47;;;;;;;27.73;11.97;;;;;;;;;;5034184;28;20455;-83
2022/01/14 09:38:14;;;;;;;24.73;11.17;;;;;;;;;;5038441;28;20967;-83
2022/01/14 09:40:42;;;;;;;24.50;11.63;;;;;;;;;;5035785;28;20549;-83
2022/01/14 09:43:12;;;;;;;23.27;11.47;;;;;;;;;;5035668;28;20470;-84
2022/01/14 09:45:39;;;;;;;23.47;11.13;;;;;;;;;;5034795;28;20488;-84
2022/01/14 09:48:06;;;;;;;22.73;10.23;;;;;;;;;;5037831;28;20449;-83
2022/01/14 09:50:32;;;;;;;21.27;9.60;;;;;;;;;;5037527;28;20449;-84
2022/01/14 09:52:58;;;;;;;18.13;9.63;;;;;;;;;;5034863;28;20564;-84
2022/01/14 09:55:25;;;;;;;17.90;11.17;;;;;;;;;;5034769;28;20457;-84
2022/01/14 09:57:52;;;;;;;23.23;11.50;;;;;;;;;;5036249;28;20496;-83
2022/01/14 10:00:22;;;;;;;23.10;9.80;;;;;;;;;;5032974;28;20532;-83
2022/01/14 10:02:50;;;;;;;22.53;10.67;;;;;;;;;;5033905;28;20567;-84
2022/01/14 10:05:33;;;;;;;22.50;11.13;;;;;;;;;;5032658;28;20559;-84
2022/01/14 10:08:09;;;;;;;18.90;10.80;;;;;;;;;;5012203;28;20505;-81
2022/01/14 10:10:37;;;;;;;24.87;9.57;;;;;;;;;;5014906;28;20461;-83
2022/01/14 10:13:10;;;;;;;19.23;10.63;;;;;;;;;;5037519;28;20466;-83
2022/01/14 10:15:43;;;;;;;20.90;10.40;;;;;;;;;;5031318;28;20437;-82
2022/01/14 10:18:10;;;;;;;21.20;11.17;;;;;;;;;;5032465;28;20486;-83
2022/01/14 10:20:37;;;;;;;22.83;10.33;;;;;;;;;;5034777;28;20480;-83
2022/01/14 10:23:03;;;;;;;19.60;9.87;;;;;;;;;;5034001;28;20473;-84
2022/01/14 10:25:30;;;;;;;30.70;12.40;;;;;;;;;;5031527;28;20513;-83
2022/01/14 10:27:56;;;;;;;28.87;14.53;;;;;;;;;;5034050;28;20521;-83
2022/01/14 10:30:23;;;;;;;19.00;11.40;;;;;;;;;;5032554;28;21087;-83
2022/01/14 10:32:55;;;;;;;20.53;11.10;;;;;;;;;;5031520;28;20477;-83
2022/01/14 10:35:22;;;;;;;24.33;11.30;;;;;;;;;;5032999;28;20442;-83
2022/01/14 10:37:48;;;;;;;25.40;12.53;;;;;;;;;;5030837;28;20618;-83
2022/01/14 10:40:17;;;;;;;16.47;10.60;;;;;;;;;;5030690;28;20450;-84
2022/01/14 10:42:44;;;;;;;21.60;12.13;;;;;;;;;;5032620;28;20480;-83
2022/01/14 10:45:17;;;;;;;18.80;12.03;;;;;;;;;;5036056;28;20487;-83
2022/01/14 10:47:50;;;;;;;21.00;11.13;;;;;;;;;;5032466;28;20472;-83
2022/01/14 10:50:18;;;;;;;27.27;10.60;;;;;;;;;;5035014;28;20445;-83
2022/01/14 10:52:49;;;;;;;16.90;10.90;;;;;;;;;;5031078;28;20477;-83
2022/01/14 10:55:27;;;;;;;18.20;11.77;;;;;;;;;;5031124;28;20434;-83
2022/01/14 10:57:53;;;;;;;27.07;11.43;;;;;;;;;;5033400;28;20473;-84
2022/01/14 11:00:20;;;;;;;19.60;11.07;;;;;;;;;;5033026;28;20453;-83
2022/01/14 11:02:48;;;;;;;26.47;10.63;;;;;;;;;;5030090;28;20559;-83
2022/01/14 11:05:15;;;;;;;20.53;10.77;;;;;;;;;;5031895;28;20486;-83
2022/01/14 11:07:43;;;;;;;19.93;10.37;;;;;;;;;;5028499;28;20476;-83
2022/01/14 11:10:20;;;;;;;23.70;9.80;;;;;;;;;;5033105;28;20879;-82
2022/01/14 11:12:47;;;;;;;21.10;10.17;;;;;;;;;;5031631;28;20476;-83
2022/01/14 11:15:13;;;;;;;20.30;11.50;;;;;;;;;;5033167;28;20491;-83
2022/01/14 11:17:41;;;;;;;33.67;11.63;;;;;;;;;;5030910;28;20480;-83
2022/01/14 11:20:09;;;;;;;23.40;11.00;;;;;;;;;;5030747;28;20521;-83
2022/01/14 11:25:21;;;;;;;27.17;12.77;;;;;;;;;;5031956;28;20480;-83
2022/01/14 11:27:48;;;;;;;24.10;11.80;;;;;;;;;;5031392;28;20469;-83
2022/01/14 11:30:14;;;;;;;19.20;12.40;;;;;;;;;;5031915;28;20475;-83
2022/01/14 11:32:54;;;;;;;23.50;13.00;;;;;;;;;;5030270;28;20491;-83
2022/01/14 11:35:21;;;;;;;28.20;13.47;;;;;;;;;;5031746;28;20449;-83
2022/01/14 11:37:47;;;;;;;27.03;14.37;;;;;;;;;;5029383;28;20563;-83
2022/01/14 11:40:15;;;;;;;27.20;15.23;;;;;;;;;;5030120;28;20457;-83
2022/01/14 11:42:44;;;;;;;25.53;14.20;;;;;;;;;;5028828;28;20567;-83
2022/01/14 11:45:11;;;;;;;26.43;13.97;;;;;;;;;;5028867;28;20493;-83
2022/01/14 11:47:52;;;;;;;26.90;14.33;;;;;;;;;;5028880;28;20990;-83
2022/01/14 11:50:36;;;;;;;27.93;14.67;;;;;;;;;;5026408;28;20464;-83
2022/01/14 11:53:02;;;;;;;45.77;16.90;;;;;;;;;;5015391;28;20477;-83
2022/01/14 11:55:38;;;;;;;34.17;18.90;;;;;;;;;;5028347;28;20970;-83
2022/01/14 11:58:06;;;;;;;31.77;17.00;;;;;;;;;;5029357;28;20548;-81
2022/01/14 12:00:37;;;;;;;24.50;16.57;;;;;;;;;;5028695;28;20450;-83
2022/01/14 12:03:21;;;;;;;29.63;16.10;;;;;;;;;;5011004;28;20474;-83
2022/01/14 12:05:53;;;;;;;33.53;16.40;;;;;;;;;;5010974;28;20492;-83
2022/01/14 12:08:19;;;;;;;32.27;15.60;;;;;;;;;;5010979;28;20474;-83
2022/01/14 12:10:46;;;;;;;30.77;16.37;;;;;;;;;;5009230;28;20830;-83
2022/01/14 12:13:21;;;;;;;31.47;15.37;;;;;;;;;;5008191;28;20488;-83
2022/01/14 12:15:55;;;;;;;28.87;15.60;;;;;;;;;;5008773;28;20557;-83
2022/01/14 12:18:36;;;;;;;25.70;15.73;;;;;;;;;;5007668;28;20472;-83
2022/01/14 12:21:03;;;;;;;33.43;15.60;;;;;;;;;;5008038;28;20508;-83
2022/01/14 12:23:29;;;;;;;32.03;14.67;;;;;;;;;;5007420;28;20485;-83
2022/01/14 12:25:55;;;;;;;24.67;15.20;;;;;;;;;;5009070;28;20533;-83
2022/01/14 12:28:24;;;;;;;28.70;15.83;;;;;;;;;;5006674;28;20485;-83
2022/01/14 12:30:57;;;;;;;27.70;15.60;;;;;;;;;;5005266;28;20612;-83
2022/01/14 12:33:39;;;;;;;38.13;17.23;;;;;;;;;;5005963;28;20497;-84
2022/01/14 12:36:08;;;;;;;36.47;17.77;;;;;;;;;;5003980;28;20489;-83
2022/01/14 12:38:35;;;;;;;24.00;15.10;;;;;;;;;;5011557;28;20509;-82
2022/01/14 12:41:01;;;;;;;29.83;16.03;;;;;;;;;;5008059;28;20520;-83
2022/01/14 12:43:30;;;;;;;32.00;15.87;;;;;;;;;;5008024;28;21071;-82
2022/01/14 12:46:13;;;;;;;27.03;15.37;;;;;;;;;;5005851;28;20856;-83
2022/01/14 12:48:46;;;;;;;31.00;15.80;;;;;;;;;;5009350;28;20488;-83
2022/01/14 12:51:13;;;;;;;30.97;14.70;;;;;;;;;;5007446;28;20517;-83
2022/01/14 12:53:52;;;;;;;23.70;15.03;;;;;;;;;;5007962;28;20544;-83
2022/01/14 12:56:20;;;;;;;30.63;12.87;;;;;;;;;;5006724;28;20482;-83
2022/01/14 12:58:55;;;;;;;19.53;13.87;;;;;;;;;;5011819;28;20450;-81
2022/01/14 13:01:25;;;;;;;31.80;14.57;;;;;;;;;;5010100;28;21003;-84
2022/01/14 13:03:54;;;;;;;28.63;14.50;;;;;;;;;;5012074;28;20469;-83
2022/01/14 13:06:20;;;;;;;29.17;14.20;;;;;;;;;;5010846;28;20483;-83
2022/01/14 13:08:52;;;;;;;23.97;13.73;;;;;;;;;;5012256;28;20477;-82
2022/01/14 13:11:19;;;;;;;23.50;13.20;;;;;;;;;;5010229;28;20556;-83
2022/01/14 13:13:46;;;;;;;29.10;14.17;;;;;;;;;;5009736;28;20510;-84
2022/01/14 13:16:15;;;;;;;31.03;13.30;;;;;;;;;;5007999;28;20501;-84
2022/01/14 13:18:44;;;;;;;24.67;14.07;;;;;;;;;;5010902;28;20461;-83
2022/01/14 13:21:10;;;;;;;23.83;11.87;;;;;;;;;;5007781;28;20545;-84
2022/01/14 13:23:36;;;;;;;19.90;12.63;;;;;;;;;;5009616;28;20489;-83
2022/01/14 13:26:03;;;;;;;23.63;13.07;;;;;;;;;;5007647;28;20485;-84
2022/01/14 13:28:29;;;;;;;23.93;11.17;;;;;;;;;;5010429;28;20521;-83
2022/01/14 13:30:55;;;;;;;20.17;11.53;;;;;;;;;;5009533;28;20462;-84
2022/01/14 13:33:25;;;;;;;20.77;11.97;;;;;;;;;;5012330;28;20536;-84
2022/01/14 13:35:51;;;;;;;21.80;12.20;;;;;;;;;;5009633;28;22804;-84
2022/01/14 13:38:18;;;;;;;20.10;11.40;;;;;;;;;;5010193;28;20516;-83
2022/01/14 13:40:45;;;;;;;20.97;11.47;;;;;;;;;;5008343;28;20457;-83
2022/01/14 13:43:13;;;;;;;20.60;10.80;;;;;;;;;;5010565;28;20484;-83
2022/01/14 13:45:40;;;;;;;15.03;9.50;;;;;;;;;;5007198;28;20489;-83
2022/01/14 13:48:09;;;;;;;22.77;11.77;;;;;;;;;;5006618;28;20477;-83
2022/01/14 13:50:37;;;;;;;21.87;11.00;;;;;;;;;;5008601;28;20467;-84
2022/01/14 13:53:04;;;;;;;26.47;11.30;;;;;;;;;;5007381;28;20462;-83
2022/01/14 13:55:32;;;;;;;21.03;11.23;;;;;;;;;;5010189;28;20454;-83
2022/01/14 13:58:03;;;;;;;14.97;10.77;;;;;;;;;;5008153;28;20474;-83
2022/01/14 14:00:30;;;;;;;23.13;11.63;;;;;;;;;;5005660;28;20829;-84
2022/01/14 14:02:56;;;;;;;21.13;10.77;;;;;;;;;;5029204;28;20462;-83
2022/01/14 14:05:38;;;;;;;29.10;11.50;;;;;;;;;;5028665;28;20504;-83
2022/01/14 14:08:12;;;;;;;18.30;10.83;;;;;;;;;;5028326;28;20473;-83
2022/01/14 14:15:39;;;;;;;23.57;10.50;;;;;;;;;;5029070;28;20992;-84
2022/01/14 14:16:28;;;;;;;21.17;11.47;;;;;;;;;;5028847;28;20477;-83
2022/01/14 14:18:55;;;;;;;17.67;9.10;;;;;;;;;;5028282;28;21115;-84
2022/01/14 14:21:23;;;;;;;15.97;10.33;;;;;;;;;;5027372;28;20490;-83
2022/01/14 14:23:54;;;;;;;17.10;8.90;;;;;;;;;;5026291;28;20866;-84
2022/01/14 14:26:29;;;;;;;17.37;10.57;;;;;;;;;;5027819;28;20485;-84
2022/01/14 14:28:55;;;;;;;18.90;10.27;;;;;;;;;;5028707;28;20539;-84
2022/01/14 14:31:26;;;;;;;20.03;13.00;;;;;;;;;;5030117;28;20499;-84
2022/01/14 14:33:53;;;;;;;16.80;10.40;;;;;;;;;;5042067;22;20497;-82
2022/01/14 14:36:21;;;;;;;18.07;10.37;;;;;;;;;;5038874;28;20479;-84
2022/01/14 14:38:49;;;;;;;29.40;12.37;;;;;;;;;;5042573;28;20534;-84